sensor_id;sensor_type;location;lat;lon;timestamp;temperature;humidity
4697;DHT22;2362;50.780;0.292;2023-08-12T00:01:49;17.20;99.90
4697;DHT22;2362;50.780;0.292;2023-08-12T00:04:15;17.20;99.90
4697;DHT22;2362;50.780;0.292;2023-08-12T00:06:42;17.20;99.90
4697;DHT22;2362;50.780;0.292;2023-08-12T00:09:08;17.10;99.90
4697;DHT22;2362;50.780;0.292;2023-08-12T00:11:35;17.00;99.90
4697;DHT22;2362;50.780;0.292;2023-08-12T00:14:01;17.00;99.90
4697;DHT22;2362;50.780;0.292;2023-08-12T00:16:27;16.90;99.90
4697;DHT22;2362;50.780;0.292;2023-08-12T00:18:52;16.80;99.90
4697;DHT22;2362;50.780;0.292;2023-08-12T00:21:21;16.80;99.90
4697;DHT22;2362;50.780;0.292;2023-08-12T00:23:46;16.70;99.90
4697;DHT22;2362;50.780;0.292;2023-08-12T00:26:15;16.70;99.90
4697;DHT22;2362;50.780;0.292;2023-08-12T00:28:40;16.70;99.90
4697;DHT22;2362;50.780;0.292;2023-08-12T00:31:06;16.70;99.90
4697;DHT22;2362;50.780;0.292;2023-08-12T00:33:32;16.80;99.90
4697;DHT22;2362;50.780;0.292;2023-08-12T00:35:57;16.80;99.90
4697;DHT22;2362;50.780;0.292;2023-08-12T00:38:23;16.80;99.90
4697;DHT22;2362;50.780;0.292;2023-08-12T00:40:49;16.90;99.90
4697;DHT22;2362;50.780;0.292;2023-08-12T00:43:14;16.90;99.90
4697;DHT22;2362;50.780;0.292;2023-08-12T00:45:41;16.80;99.90
4697;DHT22;2362;50.780;0.292;2023-08-12T00:48:08;16.90;99.90
4697;DHT22;2362;50.780;0.292;2023-08-12T00:50:36;16.90;99.90
4697;DHT22;2362;50.780;0.292;2023-08-12T00:53:02;16.90;99.90
4697;DHT22;2362;50.780;0.292;2023-08-12T00:55:28;16.90;99.90
4697;DHT22;2362;50.780;0.292;2023-08-12T00:57:53;16.90;99.90
4697;DHT22;2362;50.780;0.292;2023-08-12T01:00:19;16.90;99.90
4697;DHT22;2362;50.780;0.292;2023-08-12T01:02:47;16.90;99.90
4697;DHT22;2362;50.780;0.292;2023-08-12T01:05:14;16.90;99.90
4697;DHT22;2362;50.780;0.292;2023-08-12T01:07:42;17.00;99.90
4697;DHT22;2362;50.780;0.292;2023-08-12T01:10:08;17.00;99.90
4697;DHT22;2362;50.780;0.292;2023-08-12T01:12:55;16.90;99.90
4697;DHT22;2362;50.780;0.292;2023-08-12T01:15:24;16.90;99.90
4697;DHT22;2362;50.780;0.292;2023-08-12T01:17:53;16.90;99.90
4697;DHT22;2362;50.780;0.292;2023-08-12T01:20:22;16.90;99.90
4697;DHT22;2362;50.780;0.292;2023-08-12T01:22:57;16.90;99.90
4697;DHT22;2362;50.780;0.292;2023-08-12T01:25:26;16.80;99.90
4697;DHT22;2362;50.780;0.292;2023-08-12T01:27:52;16.90;99.90
4697;DHT22;2362;50.780;0.292;2023-08-12T01:30:18;16.90;99.90
4697;DHT22;2362;50.780;0.292;2023-08-12T01:32:53;16.90;99.90
4697;DHT22;2362;50.780;0.292;2023-08-12T01:35:41;16.90;99.90
4697;DHT22;2362;50.780;0.292;2023-08-12T01:38:09;16.90;99.90
4697;DHT22;2362;50.780;0.292;2023-08-12T01:40:38;16.90;99.90
4697;DHT22;2362;50.780;0.292;2023-08-12T01:43:04;16.90;99.90
4697;DHT22;2362;50.780;0.292;2023-08-12T01:45:33;16.90;99.90
4697;DHT22;2362;50.780;0.292;2023-08-12T01:47:59;16.80;99.90
4697;DHT22;2362;50.780;0.292;2023-08-12T01:50:25;16.80;99.90
4697;DHT22;2362;50.780;0.292;2023-08-12T01:52:51;16.80;99.90
4697;DHT22;2362;50.780;0.292;2023-08-12T01:55:17;16.70;99.90
4697;DHT22;2362;50.780;0.292;2023-08-12T01:57:42;16.80;99.90
4697;DHT22;2362;50.780;0.292;2023-08-12T02:00:08;16.70;99.90
4697;DHT22;2362;50.780;0.292;2023-08-12T02:02:34;16.70;99.90
4697;DHT22;2362;50.780;0.292;2023-08-12T02:05:00;16.70;99.90
4697;DHT22;2362;50.780;0.292;2023-08-12T02:07:25;16.70;99.90
4697;DHT22;2362;50.780;0.292;2023-08-12T02:09:51;16.70;99.90
4697;DHT22;2362;50.780;0.292;2023-08-12T02:12:17;16.70;99.90
4697;DHT22;2362;50.780;0.292;2023-08-12T02:14:42;16.70;99.90
4697;DHT22;2362;50.780;0.292;2023-08-12T02:17:08;16.70;99.90
4697;DHT22;2362;50.780;0.292;2023-08-12T02:19:34;16.70;99.90
4697;DHT22;2362;50.780;0.292;2023-08-12T02:22:01;16.70;99.90
4697;DHT22;2362;50.780;0.292;2023-08-12T02:24:27;16.70;99.90
4697;DHT22;2362;50.780;0.292;2023-08-12T02:26:53;16.70;99.90
4697;DHT22;2362;50.780;0.292;2023-08-12T02:29:18;16.70;99.90
4697;DHT22;2362;50.780;0.292;2023-08-12T02:31:44;16.70;99.90
4697;DHT22;2362;50.780;0.292;2023-08-12T02:34:10;16.70;99.90
4697;DHT22;2362;50.780;0.292;2023-08-12T02:36:36;16.70;99.90
4697;DHT22;2362;50.780;0.292;2023-08-12T02:39:01;16.70;99.90
4697;DHT22;2362;50.780;0.292;2023-08-12T02:41:27;16.70;99.90
4697;DHT22;2362;50.780;0.292;2023-08-12T02:43:53;16.70;99.90
4697;DHT22;2362;50.780;0.292;2023-08-12T02:46:18;16.70;99.90
4697;DHT22;2362;50.780;0.292;2023-08-12T02:48:45;16.60;99.90
4697;DHT22;2362;50.780;0.292;2023-08-12T02:51:13;16.60;99.90
4697;DHT22;2362;50.780;0.292;2023-08-12T02:53:38;16.50;99.90
4697;DHT22;2362;50.780;0.292;2023-08-12T02:56:04;16.50;99.90
4697;DHT22;2362;50.780;0.292;2023-08-12T02:58:30;16.50;99.90
4697;DHT22;2362;50.780;0.292;2023-08-12T03:00:56;16.50;99.90
4697;DHT22;2362;50.780;0.292;2023-08-12T03:03:21;16.50;99.90
4697;DHT22;2362;50.780;0.292;2023-08-12T03:05:48;16.40;99.90
4697;DHT22;2362;50.780;0.292;2023-08-12T03:08:14;16.40;99.90
4697;DHT22;2362;50.780;0.292;2023-08-12T03:10:40;16.40;99.90
4697;DHT22;2362;50.780;0.292;2023-08-12T03:13:06;16.40;99.90
4697;DHT22;2362;50.780;0.292;2023-08-12T03:15:31;16.40;99.90
4697;DHT22;2362;50.780;0.292;2023-08-12T03:17:57;16.40;99.90
4697;DHT22;2362;50.780;0.292;2023-08-12T03:20:23;16.40;99.90
4697;DHT22;2362;50.780;0.292;2023-08-12T03:22:48;16.40;99.90
4697;DHT22;2362;50.780;0.292;2023-08-12T03:25:14;16.40;99.90
4697;DHT22;2362;50.780;0.292;2023-08-12T03:27:42;16.40;99.90
4697;DHT22;2362;50.780;0.292;2023-08-12T03:30:09;16.40;99.90
4697;DHT22;2362;50.780;0.292;2023-08-12T03:32:34;16.30;99.90
4697;DHT22;2362;50.780;0.292;2023-08-12T03:35:00;16.40;99.90
4697;DHT22;2362;50.780;0.292;2023-08-12T03:37:26;16.40;99.90
4697;DHT22;2362;50.780;0.292;2023-08-12T03:39:52;16.40;99.90
4697;DHT22;2362;50.780;0.292;2023-08-12T03:42:17;16.40;99.90
4697;DHT22;2362;50.780;0.292;2023-08-12T03:44:44;16.40;99.90
4697;DHT22;2362;50.780;0.292;2023-08-12T03:47:10;16.50;99.90
4697;DHT22;2362;50.780;0.292;2023-08-12T03:49:36;16.40;99.90
4697;DHT22;2362;50.780;0.292;2023-08-12T03:52:02;16.50;99.90
4697;DHT22;2362;50.780;0.292;2023-08-12T03:54:28;16.50;99.90
4697;DHT22;2362;50.780;0.292;2023-08-12T03:56:54;16.50;99.90
4697;DHT22;2362;50.780;0.292;2023-08-12T03:59:19;16.40;99.90
4697;DHT22;2362;50.780;0.292;2023-08-12T04:01:45;16.40;99.90
4697;DHT22;2362;50.780;0.292;2023-08-12T04:04:11;16.40;99.90
4697;DHT22;2362;50.780;0.292;2023-08-12T04:06:37;16.30;99.90
4697;DHT22;2362;50.780;0.292;2023-08-12T04:09:03;16.30;99.90
4697;DHT22;2362;50.780;0.292;2023-08-12T04:11:29;16.40;99.90
4697;DHT22;2362;50.780;0.292;2023-08-12T04:13:55;16.30;99.90
4697;DHT22;2362;50.780;0.292;2023-08-12T04:16:21;16.30;99.90
4697;DHT22;2362;50.780;0.292;2023-08-12T04:18:47;16.20;99.90
4697;DHT22;2362;50.780;0.292;2023-08-12T04:21:13;16.20;99.90
4697;DHT22;2362;50.780;0.292;2023-08-12T04:23:39;16.10;99.90
4697;DHT22;2362;50.780;0.292;2023-08-12T04:26:04;16.10;99.90
4697;DHT22;2362;50.780;0.292;2023-08-12T04:28:30;16.10;99.90
4697;DHT22;2362;50.780;0.292;2023-08-12T04:30:56;16.00;99.90
4697;DHT22;2362;50.780;0.292;2023-08-12T04:33:22;16.00;99.90
4697;DHT22;2362;50.780;0.292;2023-08-12T04:35:48;16.00;99.90
4697;DHT22;2362;50.780;0.292;2023-08-12T04:38:13;15.90;99.90
4697;DHT22;2362;50.780;0.292;2023-08-12T04:40:40;15.90;99.90
4697;DHT22;2362;50.780;0.292;2023-08-12T04:43:07;15.90;99.90
4697;DHT22;2362;50.780;0.292;2023-08-12T04:45:33;15.90;99.90
4697;DHT22;2362;50.780;0.292;2023-08-12T04:47:58;15.90;99.90
4697;DHT22;2362;50.780;0.292;2023-08-12T04:50:25;16.00;99.90
4697;DHT22;2362;50.780;0.292;2023-08-12T04:52:50;16.00;99.90
4697;DHT22;2362;50.780;0.292;2023-08-12T04:55:16;16.00;99.90
4697;DHT22;2362;50.780;0.292;2023-08-12T04:57:42;15.90;99.90
4697;DHT22;2362;50.780;0.292;2023-08-12T05:00:08;15.90;99.90
4697;DHT22;2362;50.780;0.292;2023-08-12T05:02:34;15.90;99.90
4697;DHT22;2362;50.780;0.292;2023-08-12T05:05:00;15.80;99.90
4697;DHT22;2362;50.780;0.292;2023-08-12T05:07:26;15.80;99.90
4697;DHT22;2362;50.780;0.292;2023-08-12T05:09:52;15.80;99.90
4697;DHT22;2362;50.780;0.292;2023-08-12T05:12:18;15.90;99.90
4697;DHT22;2362;50.780;0.292;2023-08-12T05:14:43;15.90;99.90
4697;DHT22;2362;50.780;0.292;2023-08-12T05:17:09;16.00;99.90
4697;DHT22;2362;50.780;0.292;2023-08-12T05:19:35;16.10;99.90
4697;DHT22;2362;50.780;0.292;2023-08-12T05:22:00;16.10;99.90
4697;DHT22;2362;50.780;0.292;2023-08-12T05:24:26;16.10;99.90
4697;DHT22;2362;50.780;0.292;2023-08-12T05:26:52;16.20;99.90
4697;DHT22;2362;50.780;0.292;2023-08-12T05:29:17;16.20;99.90
4697;DHT22;2362;50.780;0.292;2023-08-12T05:31:43;16.30;99.90
4697;DHT22;2362;50.780;0.292;2023-08-12T05:34:08;16.30;99.90
4697;DHT22;2362;50.780;0.292;2023-08-12T05:36:35;16.40;99.90
4697;DHT22;2362;50.780;0.292;2023-08-12T05:39:01;16.50;99.90
4697;DHT22;2362;50.780;0.292;2023-08-12T05:41:28;16.50;99.90
4697;DHT22;2362;50.780;0.292;2023-08-12T05:43:54;16.50;99.90
4697;DHT22;2362;50.780;0.292;2023-08-12T05:46:19;16.60;99.90
4697;DHT22;2362;50.780;0.292;2023-08-12T05:48:45;16.70;99.90
4697;DHT22;2362;50.780;0.292;2023-08-12T05:51:11;16.80;99.90
4697;DHT22;2362;50.780;0.292;2023-08-12T05:53:37;16.90;99.90
4697;DHT22;2362;50.780;0.292;2023-08-12T05:56:03;17.00;99.90
4697;DHT22;2362;50.780;0.292;2023-08-12T05:58:28;17.10;99.90
4697;DHT22;2362;50.780;0.292;2023-08-12T06:00:54;17.10;99.90
4697;DHT22;2362;50.780;0.292;2023-08-12T06:03:19;17.10;99.90
4697;DHT22;2362;50.780;0.292;2023-08-12T06:05:46;17.10;99.90
4697;DHT22;2362;50.780;0.292;2023-08-12T06:08:13;17.20;99.90
4697;DHT22;2362;50.780;0.292;2023-08-12T06:10:38;17.20;99.90
4697;DHT22;2362;50.780;0.292;2023-08-12T06:13:04;17.20;99.90
4697;DHT22;2362;50.780;0.292;2023-08-12T06:15:30;17.30;99.90
4697;DHT22;2362;50.780;0.292;2023-08-12T06:17:56;17.50;99.90
4697;DHT22;2362;50.780;0.292;2023-08-12T06:20:23;18.10;99.90
4697;DHT22;2362;50.780;0.292;2023-08-12T06:22:49;18.40;99.90
4697;DHT22;2362;50.780;0.292;2023-08-12T06:25:15;18.50;99.90
4697;DHT22;2362;50.780;0.292;2023-08-12T06:27:41;18.70;99.90
4697;DHT22;2362;50.780;0.292;2023-08-12T06:30:07;18.90;99.90
4697;DHT22;2362;50.780;0.292;2023-08-12T06:32:34;18.80;99.90
4697;DHT22;2362;50.780;0.292;2023-08-12T06:34:59;19.10;99.90
4697;DHT22;2362;50.780;0.292;2023-08-12T06:37:25;19.20;99.90
4697;DHT22;2362;50.780;0.292;2023-08-12T06:39:51;18.90;99.90
4697;DHT22;2362;50.780;0.292;2023-08-12T06:42:16;19.40;99.90
4697;DHT22;2362;50.780;0.292;2023-08-12T06:44:42;20.20;99.90
4697;DHT22;2362;50.780;0.292;2023-08-12T06:47:08;21.00;99.90
4697;DHT22;2362;50.780;0.292;2023-08-12T06:49:33;21.60;99.90
4697;DHT22;2362;50.780;0.292;2023-08-12T06:51:59;22.00;99.90
4697;DHT22;2362;50.780;0.292;2023-08-12T06:54:25;22.00;99.90
4697;DHT22;2362;50.780;0.292;2023-08-12T06:56:50;22.20;99.90
4697;DHT22;2362;50.780;0.292;2023-08-12T06:59:16;22.50;99.90
4697;DHT22;2362;50.780;0.292;2023-08-12T07:01:42;22.40;99.90
4697;DHT22;2362;50.780;0.292;2023-08-12T07:04:08;22.40;99.90
4697;DHT22;2362;50.780;0.292;2023-08-12T07:06:33;22.50;99.90
4697;DHT22;2362;50.780;0.292;2023-08-12T07:08:59;23.10;99.90
4697;DHT22;2362;50.780;0.292;2023-08-12T07:11:25;22.70;99.90
4697;DHT22;2362;50.780;0.292;2023-08-12T07:13:50;22.30;99.90
4697;DHT22;2362;50.780;0.292;2023-08-12T07:16:16;22.40;99.90
4697;DHT22;2362;50.780;0.292;2023-08-12T07:18:42;22.60;99.90
4697;DHT22;2362;50.780;0.292;2023-08-12T07:21:07;22.80;99.90
4697;DHT22;2362;50.780;0.292;2023-08-12T07:23:33;22.90;99.90
4697;DHT22;2362;50.780;0.292;2023-08-12T07:25:59;22.60;99.90
4697;DHT22;2362;50.780;0.292;2023-08-12T07:28:24;22.30;99.90
4697;DHT22;2362;50.780;0.292;2023-08-12T07:30:50;21.80;99.90
4697;DHT22;2362;50.780;0.292;2023-08-12T07:33:19;21.10;99.90
4697;DHT22;2362;50.780;0.292;2023-08-12T07:35:44;21.00;99.90
4697;DHT22;2362;50.780;0.292;2023-08-12T07:38:10;21.00;99.90
4697;DHT22;2362;50.780;0.292;2023-08-12T07:40:36;21.20;99.90
4697;DHT22;2362;50.780;0.292;2023-08-12T07:43:01;21.40;99.90
4697;DHT22;2362;50.780;0.292;2023-08-12T07:45:27;22.00;99.90
4697;DHT22;2362;50.780;0.292;2023-08-12T07:47:53;22.80;99.90
4697;DHT22;2362;50.780;0.292;2023-08-12T07:50:19;23.30;99.90
4697;DHT22;2362;50.780;0.292;2023-08-12T07:52:45;23.20;99.90
4697;DHT22;2362;50.780;0.292;2023-08-12T07:55:11;23.60;99.90
4697;DHT22;2362;50.780;0.292;2023-08-12T07:57:37;24.10;99.90
4697;DHT22;2362;50.780;0.292;2023-08-12T08:00:03;23.70;99.90
4697;DHT22;2362;50.780;0.292;2023-08-12T08:02:30;24.00;99.90
4697;DHT22;2362;50.780;0.292;2023-08-12T08:04:56;24.20;99.90
4697;DHT22;2362;50.780;0.292;2023-08-12T08:07:21;24.00;99.90
4697;DHT22;2362;50.780;0.292;2023-08-12T08:09:47;23.10;99.90
4697;DHT22;2362;50.780;0.292;2023-08-12T08:12:13;22.20;99.90
4697;DHT22;2362;50.780;0.292;2023-08-12T08:14:38;22.10;99.90
4697;DHT22;2362;50.780;0.292;2023-08-12T08:17:04;21.90;99.90
4697;DHT22;2362;50.780;0.292;2023-08-12T08:19:30;21.20;99.90
4697;DHT22;2362;50.780;0.292;2023-08-12T08:21:57;21.10;99.90
4697;DHT22;2362;50.780;0.292;2023-08-12T08:24:23;21.80;99.90
4697;DHT22;2362;50.780;0.292;2023-08-12T08:26:48;22.30;99.90
4697;DHT22;2362;50.780;0.292;2023-08-12T08:29:14;23.30;99.90
4697;DHT22;2362;50.780;0.292;2023-08-12T08:31:40;23.80;99.90
4697;DHT22;2362;50.780;0.292;2023-08-12T08:34:06;23.60;99.90
4697;DHT22;2362;50.780;0.292;2023-08-12T08:36:32;23.40;99.90
4697;DHT22;2362;50.780;0.292;2023-08-12T08:38:58;23.80;99.90
4697;DHT22;2362;50.780;0.292;2023-08-12T08:41:24;24.40;99.90
4697;DHT22;2362;50.780;0.292;2023-08-12T08:43:50;23.70;99.90
4697;DHT22;2362;50.780;0.292;2023-08-12T08:46:20;23.50;99.90
4697;DHT22;2362;50.780;0.292;2023-08-12T08:48:46;23.20;99.90
4697;DHT22;2362;50.780;0.292;2023-08-12T08:51:14;23.40;99.90
4697;DHT22;2362;50.780;0.292;2023-08-12T08:53:40;23.60;99.90
4697;DHT22;2362;50.780;0.292;2023-08-12T08:56:08;23.70;99.90
4697;DHT22;2362;50.780;0.292;2023-08-12T08:58:37;23.90;99.90
4697;DHT22;2362;50.780;0.292;2023-08-12T09:01:07;24.10;99.90
4697;DHT22;2362;50.780;0.292;2023-08-12T09:03:36;23.50;99.90
4697;DHT22;2362;50.780;0.292;2023-08-12T09:06:03;23.00;99.90
4697;DHT22;2362;50.780;0.292;2023-08-12T09:08:31;22.20;99.90
4697;DHT22;2362;50.780;0.292;2023-08-12T09:10:58;21.70;99.90
4697;DHT22;2362;50.780;0.292;2023-08-12T09:13:24;21.80;99.90
4697;DHT22;2362;50.780;0.292;2023-08-12T09:15:50;21.90;99.90
4697;DHT22;2362;50.780;0.292;2023-08-12T09:18:17;22.30;99.90
4697;DHT22;2362;50.780;0.292;2023-08-12T09:20:43;22.10;99.90
4697;DHT22;2362;50.780;0.292;2023-08-12T09:23:09;21.90;99.90
4697;DHT22;2362;50.780;0.292;2023-08-12T09:25:42;21.60;99.90
4697;DHT22;2362;50.780;0.292;2023-08-12T09:28:09;21.70;99.90
4697;DHT22;2362;50.780;0.292;2023-08-12T09:30:36;21.70;99.90
4697;DHT22;2362;50.780;0.292;2023-08-12T09:33:06;21.40;99.90
4697;DHT22;2362;50.780;0.292;2023-08-12T09:35:37;21.00;99.90
4697;DHT22;2362;50.780;0.292;2023-08-12T09:38:05;21.10;99.90
4697;DHT22;2362;50.780;0.292;2023-08-12T09:40:32;21.00;99.90
4697;DHT22;2362;50.780;0.292;2023-08-12T09:42:58;21.10;99.90
4697;DHT22;2362;50.780;0.292;2023-08-12T09:45:25;20.90;99.90
4697;DHT22;2362;50.780;0.292;2023-08-12T09:47:52;20.80;99.90
4697;DHT22;2362;50.780;0.292;2023-08-12T09:50:21;20.90;99.90
4697;DHT22;2362;50.780;0.292;2023-08-12T09:52:48;21.10;99.90
4697;DHT22;2362;50.780;0.292;2023-08-12T09:55:16;21.20;99.90
4697;DHT22;2362;50.780;0.292;2023-08-12T09:57:43;21.30;99.90
4697;DHT22;2362;50.780;0.292;2023-08-12T10:00:12;21.20;99.90
4697;DHT22;2362;50.780;0.292;2023-08-12T10:02:45;21.00;99.90
4697;DHT22;2362;50.780;0.292;2023-08-12T10:05:14;21.10;99.90
4697;DHT22;2362;50.780;0.292;2023-08-12T10:07:40;21.20;99.90
4697;DHT22;2362;50.780;0.292;2023-08-12T10:10:07;21.30;99.90
4697;DHT22;2362;50.780;0.292;2023-08-12T10:12:34;21.20;99.90
4697;DHT22;2362;50.780;0.292;2023-08-12T10:15:01;21.30;99.90
4697;DHT22;2362;50.780;0.292;2023-08-12T10:17:28;21.40;99.90
4697;DHT22;2362;50.780;0.292;2023-08-12T10:19:55;21.70;99.90
4697;DHT22;2362;50.780;0.292;2023-08-12T10:22:21;21.70;99.90
4697;DHT22;2362;50.780;0.292;2023-08-12T10:24:49;21.40;99.90
4697;DHT22;2362;50.780;0.292;2023-08-12T10:27:17;21.50;99.90
4697;DHT22;2362;50.780;0.292;2023-08-12T10:29:43;21.40;99.90
4697;DHT22;2362;50.780;0.292;2023-08-12T10:32:09;21.40;99.90
4697;DHT22;2362;50.780;0.292;2023-08-12T10:34:35;21.40;99.90
4697;DHT22;2362;50.780;0.292;2023-08-12T10:37:02;21.30;99.90
4697;DHT22;2362;50.780;0.292;2023-08-12T10:39:28;21.70;99.90
4697;DHT22;2362;50.780;0.292;2023-08-12T10:41:55;22.00;99.90
4697;DHT22;2362;50.780;0.292;2023-08-12T10:44:24;22.10;99.90
4697;DHT22;2362;50.780;0.292;2023-08-12T10:46:52;22.20;99.90
4697;DHT22;2362;50.780;0.292;2023-08-12T10:49:21;22.60;99.90
4697;DHT22;2362;50.780;0.292;2023-08-12T10:54:26;22.60;99.90
4697;DHT22;2362;50.780;0.292;2023-08-12T11:02:34;22.50;99.90
4697;DHT22;2362;50.780;0.292;2023-08-12T11:05:02;22.40;99.90
4697;DHT22;2362;50.780;0.292;2023-08-12T11:07:57;22.60;99.90
4697;DHT22;2362;50.780;0.292;2023-08-12T11:10:25;22.40;99.90
4697;DHT22;2362;50.780;0.292;2023-08-12T11:15:18;22.20;99.90
4697;DHT22;2362;50.780;0.292;2023-08-12T11:17:46;22.10;99.90
4697;DHT22;2362;50.780;0.292;2023-08-12T11:20:13;22.60;99.90
4697;DHT22;2362;50.780;0.292;2023-08-12T11:22:40;22.70;99.90
4697;DHT22;2362;50.780;0.292;2023-08-12T11:25:12;22.70;99.90
4697;DHT22;2362;50.780;0.292;2023-08-12T11:27:45;22.70;99.90
4697;DHT22;2362;50.780;0.292;2023-08-12T11:30:13;22.70;99.90
4697;DHT22;2362;50.780;0.292;2023-08-12T11:32:41;22.50;99.90
4697;DHT22;2362;50.780;0.292;2023-08-12T11:35:08;22.30;99.90
4697;DHT22;2362;50.780;0.292;2023-08-12T11:37:38;22.40;99.90
4697;DHT22;2362;50.780;0.292;2023-08-12T11:40:08;22.50;99.90
4697;DHT22;2362;50.780;0.292;2023-08-12T11:42:42;22.60;99.90
4697;DHT22;2362;50.780;0.292;2023-08-12T11:45:08;22.70;99.90
4697;DHT22;2362;50.780;0.292;2023-08-12T11:47:34;22.90;99.90
4697;DHT22;2362;50.780;0.292;2023-08-12T11:50:04;23.10;99.90
4697;DHT22;2362;50.780;0.292;2023-08-12T11:52:31;23.10;99.90
4697;DHT22;2362;50.780;0.292;2023-08-12T11:54:57;23.00;99.90
4697;DHT22;2362;50.780;0.292;2023-08-12T11:57:23;22.70;99.90
4697;DHT22;2362;50.780;0.292;2023-08-12T11:59:53;22.50;99.90
4697;DHT22;2362;50.780;0.292;2023-08-12T12:02:18;22.50;99.90
4697;DHT22;2362;50.780;0.292;2023-08-12T12:04:45;22.60;99.90
4697;DHT22;2362;50.780;0.292;2023-08-12T12:07:22;22.60;99.90
4697;DHT22;2362;50.780;0.292;2023-08-12T12:09:51;22.60;99.90
4697;DHT22;2362;50.780;0.292;2023-08-12T12:12:18;22.50;99.90
4697;DHT22;2362;50.780;0.292;2023-08-12T12:14:46;22.50;99.90
4697;DHT22;2362;50.780;0.292;2023-08-12T12:17:12;22.20;99.90
4697;DHT22;2362;50.780;0.292;2023-08-12T12:19:40;21.40;99.90
4697;DHT22;2362;50.780;0.292;2023-08-12T12:22:07;20.50;99.90
4697;DHT22;2362;50.780;0.292;2023-08-12T12:24:46;20.00;99.90
4697;DHT22;2362;50.780;0.292;2023-08-12T12:27:16;20.00;99.90
4697;DHT22;2362;50.780;0.292;2023-08-12T12:29:41;19.60;99.90
4697;DHT22;2362;50.780;0.292;2023-08-12T12:32:08;19.70;99.90
4697;DHT22;2362;50.780;0.292;2023-08-12T12:34:34;19.50;99.90
4697;DHT22;2362;50.780;0.292;2023-08-12T12:37:00;19.70;99.90
4697;DHT22;2362;50.780;0.292;2023-08-12T12:39:26;19.60;99.90
4697;DHT22;2362;50.780;0.292;2023-08-12T12:41:52;19.80;99.90
4697;DHT22;2362;50.780;0.292;2023-08-12T12:44:18;20.10;99.90
4697;DHT22;2362;50.780;0.292;2023-08-12T12:46:44;20.40;99.90
4697;DHT22;2362;50.780;0.292;2023-08-12T12:49:10;20.70;99.90
4697;DHT22;2362;50.780;0.292;2023-08-12T12:51:36;20.90;99.90
4697;DHT22;2362;50.780;0.292;2023-08-12T12:54:02;20.90;99.90
4697;DHT22;2362;50.780;0.292;2023-08-12T12:56:27;21.20;99.90
4697;DHT22;2362;50.780;0.292;2023-08-12T12:58:53;21.40;99.90
4697;DHT22;2362;50.780;0.292;2023-08-12T13:01:19;21.40;99.90
4697;DHT22;2362;50.780;0.292;2023-08-12T13:03:44;21.40;99.90
4697;DHT22;2362;50.780;0.292;2023-08-12T13:06:10;21.40;99.90
4697;DHT22;2362;50.780;0.292;2023-08-12T13:08:36;21.40;99.90
4697;DHT22;2362;50.780;0.292;2023-08-12T13:11:01;21.60;99.90
4697;DHT22;2362;50.780;0.292;2023-08-12T13:13:27;21.60;99.90
4697;DHT22;2362;50.780;0.292;2023-08-12T13:15:53;21.60;99.90
4697;DHT22;2362;50.780;0.292;2023-08-12T13:18:19;21.60;99.90
4697;DHT22;2362;50.780;0.292;2023-08-12T13:20:44;21.60;99.90
4697;DHT22;2362;50.780;0.292;2023-08-12T13:23:10;21.40;99.90
4697;DHT22;2362;50.780;0.292;2023-08-12T13:25:36;21.50;99.90
4697;DHT22;2362;50.780;0.292;2023-08-12T13:28:03;21.40;99.90
4697;DHT22;2362;50.780;0.292;2023-08-12T13:30:29;21.50;99.90
4697;DHT22;2362;50.780;0.292;2023-08-12T13:32:55;21.60;99.90
4697;DHT22;2362;50.780;0.292;2023-08-12T13:35:21;21.50;99.90
4697;DHT22;2362;50.780;0.292;2023-08-12T13:37:48;21.60;99.90
4697;DHT22;2362;50.780;0.292;2023-08-12T13:40:13;21.90;99.90
4697;DHT22;2362;50.780;0.292;2023-08-12T13:42:41;22.10;99.90
4697;DHT22;2362;50.780;0.292;2023-08-12T13:45:07;22.10;99.90
4697;DHT22;2362;50.780;0.292;2023-08-12T13:47:36;21.90;99.90
4697;DHT22;2362;50.780;0.292;2023-08-12T13:50:02;21.90;99.90
4697;DHT22;2362;50.780;0.292;2023-08-12T13:52:28;21.90;99.90
4697;DHT22;2362;50.780;0.292;2023-08-12T13:54:54;22.00;99.90
4697;DHT22;2362;50.780;0.292;2023-08-12T13:57:19;22.10;99.90
4697;DHT22;2362;50.780;0.292;2023-08-12T13:59:45;21.90;99.90
4697;DHT22;2362;50.780;0.292;2023-08-12T14:02:13;21.90;99.90
4697;DHT22;2362;50.780;0.292;2023-08-12T14:04:39;21.70;99.90
4697;DHT22;2362;50.780;0.292;2023-08-12T14:07:05;21.60;99.90
4697;DHT22;2362;50.780;0.292;2023-08-12T14:09:30;21.40;99.90
4697;DHT22;2362;50.780;0.292;2023-08-12T14:11:57;21.40;99.90
4697;DHT22;2362;50.780;0.292;2023-08-12T14:14:25;21.30;99.90
4697;DHT22;2362;50.780;0.292;2023-08-12T14:16:53;21.30;99.90
4697;DHT22;2362;50.780;0.292;2023-08-12T14:19:19;21.30;99.90
4697;DHT22;2362;50.780;0.292;2023-08-12T14:21:45;21.40;99.90
4697;DHT22;2362;50.780;0.292;2023-08-12T14:24:11;21.40;99.90
4697;DHT22;2362;50.780;0.292;2023-08-12T14:26:38;21.60;99.90
4697;DHT22;2362;50.780;0.292;2023-08-12T14:29:04;21.60;99.90
4697;DHT22;2362;50.780;0.292;2023-08-12T14:31:29;21.50;99.90
4697;DHT22;2362;50.780;0.292;2023-08-12T14:33:55;21.40;99.90
4697;DHT22;2362;50.780;0.292;2023-08-12T14:36:21;21.30;99.90
4697;DHT22;2362;50.780;0.292;2023-08-12T14:38:46;21.00;99.90
4697;DHT22;2362;50.780;0.292;2023-08-12T14:41:12;21.00;99.90
4697;DHT22;2362;50.780;0.292;2023-08-12T14:43:38;21.10;99.90
4697;DHT22;2362;50.780;0.292;2023-08-12T14:46:03;21.10;99.90
4697;DHT22;2362;50.780;0.292;2023-08-12T14:48:31;21.10;99.90
4697;DHT22;2362;50.780;0.292;2023-08-12T14:50:57;21.30;99.90
4697;DHT22;2362;50.780;0.292;2023-08-12T14:53:24;21.50;99.90
4697;DHT22;2362;50.780;0.292;2023-08-12T14:55:49;21.70;99.90
4697;DHT22;2362;50.780;0.292;2023-08-12T14:58:15;21.70;99.90
4697;DHT22;2362;50.780;0.292;2023-08-12T15:00:41;21.60;99.90
4697;DHT22;2362;50.780;0.292;2023-08-12T15:03:06;21.50;99.90
4697;DHT22;2362;50.780;0.292;2023-08-12T15:05:32;21.30;99.90
4697;DHT22;2362;50.780;0.292;2023-08-12T15:07:58;21.20;99.90
4697;DHT22;2362;50.780;0.292;2023-08-12T15:10:23;21.30;99.90
4697;DHT22;2362;50.780;0.292;2023-08-12T15:12:49;21.50;99.90
4697;DHT22;2362;50.780;0.292;2023-08-12T15:15:15;21.50;99.90
4697;DHT22;2362;50.780;0.292;2023-08-12T15:17:40;21.30;99.90
4697;DHT22;2362;50.780;0.292;2023-08-12T15:20:07;21.40;99.90
4697;DHT22;2362;50.780;0.292;2023-08-12T15:22:35;21.70;99.90
4697;DHT22;2362;50.780;0.292;2023-08-12T15:25:01;21.80;99.90
4697;DHT22;2362;50.780;0.292;2023-08-12T15:27:27;21.90;99.90
4697;DHT22;2362;50.780;0.292;2023-08-12T15:29:52;21.90;99.90
4697;DHT22;2362;50.780;0.292;2023-08-12T15:32:19;21.70;99.90
4697;DHT22;2362;50.780;0.292;2023-08-12T15:34:44;21.60;99.90
4697;DHT22;2362;50.780;0.292;2023-08-12T15:37:10;21.50;99.90
4697;DHT22;2362;50.780;0.292;2023-08-12T15:39:36;21.20;99.90
4697;DHT22;2362;50.780;0.292;2023-08-12T15:42:01;21.10;99.90
4697;DHT22;2362;50.780;0.292;2023-08-12T15:44:27;20.90;99.90
4697;DHT22;2362;50.780;0.292;2023-08-12T15:46:53;20.80;99.90
4697;DHT22;2362;50.780;0.292;2023-08-12T15:49:19;20.80;99.90
4697;DHT22;2362;50.780;0.292;2023-08-12T15:51:44;20.60;99.90
4697;DHT22;2362;50.780;0.292;2023-08-12T15:54:10;20.50;99.90
4697;DHT22;2362;50.780;0.292;2023-08-12T15:56:36;20.70;99.90
4697;DHT22;2362;50.780;0.292;2023-08-12T15:59:06;20.80;99.90
4697;DHT22;2362;50.780;0.292;2023-08-12T16:01:32;21.00;99.90
4697;DHT22;2362;50.780;0.292;2023-08-12T16:03:58;21.00;99.90
4697;DHT22;2362;50.780;0.292;2023-08-12T16:06:24;20.80;99.90
4697;DHT22;2362;50.780;0.292;2023-08-12T16:08:51;20.70;99.90